sensor_id;sensor_type;location;lat;lon;timestamp;P1;durP1;ratioP1;P2;durP2;ratioP2
3819;SDS011;1925;51.356;9.530;2023-05-31T00:02:11;7.03;;;5.57;;
3819;SDS011;1925;51.356;9.530;2023-05-31T00:04:37;8.20;;;5.80;;
3819;SDS011;1925;51.356;9.530;2023-05-31T00:07:04;8.70;;;5.07;;
3819;SDS011;1925;51.356;9.530;2023-05-31T00:09:30;7.50;;;4.80;;
3819;SDS011;1925;51.356;9.530;2023-05-31T00:11:56;7.03;;;5.00;;
3819;SDS011;1925;51.356;9.530;2023-05-31T00:14:22;6.57;;;4.80;;
3819;SDS011;1925;51.356;9.530;2023-05-31T00:16:48;6.63;;;5.33;;
3819;SDS011;1925;51.356;9.530;2023-05-31T00:19:14;7.47;;;4.50;;
3819;SDS011;1925;51.356;9.530;2023-05-31T00:21:40;6.97;;;5.03;;
3819;SDS011;1925;51.356;9.530;2023-05-31T00:24:06;9.47;;;4.70;;
3819;SDS011;1925;51.356;9.530;2023-05-31T00:26:32;8.40;;;4.87;;
3819;SDS011;1925;51.356;9.530;2023-05-31T00:28:58;12.00;;;4.97;;
3819;SDS011;1925;51.356;9.530;2023-05-31T00:31:24;4.33;;;3.93;;
3819;SDS011;1925;51.356;9.530;2023-05-31T00:33:50;8.63;;;4.47;;
3819;SDS011;1925;51.356;9.530;2023-05-31T00:36:16;6.90;;;5.00;;
3819;SDS011;1925;51.356;9.530;2023-05-31T00:38:42;8.20;;;4.27;;
3819;SDS011;1925;51.356;9.530;2023-05-31T00:41:08;5.73;;;4.23;;
3819;SDS011;1925;51.356;9.530;2023-05-31T00:43:35;6.10;;;4.50;;
3819;SDS011;1925;51.356;9.530;2023-05-31T00:46:01;10.67;;;5.30;;
3819;SDS011;1925;51.356;9.530;2023-05-31T00:48:28;5.03;;;4.20;;
3819;SDS011;1925;51.356;9.530;2023-05-31T00:50:54;7.10;;;4.90;;
3819;SDS011;1925;51.356;9.530;2023-05-31T00:53:21;5.50;;;4.50;;
3819;SDS011;1925;51.356;9.530;2023-05-31T00:55:48;7.23;;;4.40;;
3819;SDS011;1925;51.356;9.530;2023-05-31T00:58:15;6.13;;;4.00;;
3819;SDS011;1925;51.356;9.530;2023-05-31T01:00:41;6.53;;;4.30;;
3819;SDS011;1925;51.356;9.530;2023-05-31T01:03:07;11.10;;;5.00;;
3819;SDS011;1925;51.356;9.530;2023-05-31T01:05:34;7.53;;;5.47;;
3819;SDS011;1925;51.356;9.530;2023-05-31T01:08:00;6.10;;;5.10;;
3819;SDS011;1925;51.356;9.530;2023-05-31T01:10:26;7.53;;;4.80;;
3819;SDS011;1925;51.356;9.530;2023-05-31T01:15:52;11.47;;;5.33;;
3819;SDS011;1925;51.356;9.530;2023-05-31T01:18:31;6.43;;;5.07;;
3819;SDS011;1925;51.356;9.530;2023-05-31T01:21:01;6.57;;;4.47;;
3819;SDS011;1925;51.356;9.530;2023-05-31T01:28:51;7.67;;;4.93;;
3819;SDS011;1925;51.356;9.530;2023-05-31T01:31:20;12.43;;;5.30;;
3819;SDS011;1925;51.356;9.530;2023-05-31T01:33:46;7.80;;;4.90;;
3819;SDS011;1925;51.356;9.530;2023-05-31T01:36:13;8.10;;;5.30;;
3819;SDS011;1925;51.356;9.530;2023-05-31T01:38:38;8.10;;;5.27;;
3819;SDS011;1925;51.356;9.530;2023-05-31T01:41:04;6.17;;;4.80;;
3819;SDS011;1925;51.356;9.530;2023-05-31T01:43:31;6.27;;;5.53;;
3819;SDS011;1925;51.356;9.530;2023-05-31T01:45:58;7.87;;;5.50;;
3819;SDS011;1925;51.356;9.530;2023-05-31T01:48:25;9.53;;;5.40;;
3819;SDS011;1925;51.356;9.530;2023-05-31T01:50:52;7.97;;;5.50;;
3819;SDS011;1925;51.356;9.530;2023-05-31T01:53:18;9.13;;;6.23;;
3819;SDS011;1925;51.356;9.530;2023-05-31T01:55:44;6.30;;;5.70;;
3819;SDS011;1925;51.356;9.530;2023-05-31T01:58:11;7.80;;;5.90;;
3819;SDS011;1925;51.356;9.530;2023-05-31T02:00:37;9.37;;;6.40;;
3819;SDS011;1925;51.356;9.530;2023-05-31T02:03:04;8.07;;;7.23;;
3819;SDS011;1925;51.356;9.530;2023-05-31T02:05:30;10.00;;;5.70;;
3819;SDS011;1925;51.356;9.530;2023-05-31T02:07:56;8.80;;;5.93;;
3819;SDS011;1925;51.356;9.530;2023-05-31T02:10:22;14.13;;;5.87;;
3819;SDS011;1925;51.356;9.530;2023-05-31T02:12:48;7.30;;;5.90;;
3819;SDS011;1925;51.356;9.530;2023-05-31T02:15:15;9.20;;;6.10;;
3819;SDS011;1925;51.356;9.530;2023-05-31T02:17:44;8.00;;;6.60;;
3819;SDS011;1925;51.356;9.530;2023-05-31T02:20:14;14.60;;;7.23;;
3819;SDS011;1925;51.356;9.530;2023-05-31T02:22:40;6.73;;;5.07;;
3819;SDS011;1925;51.356;9.530;2023-05-31T02:25:10;5.80;;;5.20;;
3819;SDS011;1925;51.356;9.530;2023-05-31T02:27:36;7.90;;;5.07;;
3819;SDS011;1925;51.356;9.530;2023-05-31T02:30:05;10.03;;;5.50;;
3819;SDS011;1925;51.356;9.530;2023-05-31T02:32:32;9.50;;;6.17;;
3819;SDS011;1925;51.356;9.530;2023-05-31T02:35:06;6.40;;;5.07;;
3819;SDS011;1925;51.356;9.530;2023-05-31T02:37:32;6.20;;;4.97;;
3819;SDS011;1925;51.356;9.530;2023-05-31T02:39:58;9.90;;;5.50;;
3819;SDS011;1925;51.356;9.530;2023-05-31T02:42:24;13.63;;;6.50;;
3819;SDS011;1925;51.356;9.530;2023-05-31T02:44:50;6.70;;;5.60;;
3819;SDS011;1925;51.356;9.530;2023-05-31T02:47:16;8.53;;;6.30;;
3819;SDS011;1925;51.356;9.530;2023-05-31T02:49:42;10.93;;;6.23;;
3819;SDS011;1925;51.356;9.530;2023-05-31T02:52:08;11.53;;;6.80;;
3819;SDS011;1925;51.356;9.530;2023-05-31T02:54:34;8.53;;;5.83;;
3819;SDS011;1925;51.356;9.530;2023-05-31T02:57:00;6.63;;;5.50;;
3819;SDS011;1925;51.356;9.530;2023-05-31T02:59:26;9.20;;;5.90;;
3819;SDS011;1925;51.356;9.530;2023-05-31T03:01:52;9.53;;;6.57;;
3819;SDS011;1925;51.356;9.530;2023-05-31T03:04:19;10.80;;;5.90;;
3819;SDS011;1925;51.356;9.530;2023-05-31T03:06:45;11.40;;;6.40;;
3819;SDS011;1925;51.356;9.530;2023-05-31T03:09:11;7.10;;;6.00;;
3819;SDS011;1925;51.356;9.530;2023-05-31T03:11:41;10.30;;;5.87;;
3819;SDS011;1925;51.356;9.530;2023-05-31T03:14:07;9.40;;;5.87;;
3819;SDS011;1925;51.356;9.530;2023-05-31T03:16:33;8.80;;;5.00;;
3819;SDS011;1925;51.356;9.530;2023-05-31T03:18:59;6.20;;;4.80;;
3819;SDS011;1925;51.356;9.530;2023-05-31T03:21:25;9.53;;;6.60;;
3819;SDS011;1925;51.356;9.530;2023-05-31T03:23:51;7.80;;;5.53;;
3819;SDS011;1925;51.356;9.530;2023-05-31T03:26:17;6.70;;;5.20;;
3819;SDS011;1925;51.356;9.530;2023-05-31T03:28:43;6.53;;;5.20;;
3819;SDS011;1925;51.356;9.530;2023-05-31T03:31:09;7.77;;;6.13;;
3819;SDS011;1925;51.356;9.530;2023-05-31T03:33:35;10.83;;;6.03;;
3819;SDS011;1925;51.356;9.530;2023-05-31T03:36:02;11.60;;;5.60;;
3819;SDS011;1925;51.356;9.530;2023-05-31T03:38:28;7.32;;;5.40;;
3819;SDS011;1925;51.356;9.530;2023-05-31T03:40:54;8.67;;;5.70;;
3819;SDS011;1925;51.356;9.530;2023-05-31T03:43:20;11.80;;;6.87;;
3819;SDS011;1925;51.356;9.530;2023-05-31T03:45:46;7.67;;;6.43;;
3819;SDS011;1925;51.356;9.530;2023-05-31T03:48:12;10.30;;;5.70;;
3819;SDS011;1925;51.356;9.530;2023-05-31T03:50:39;11.23;;;6.20;;
3819;SDS011;1925;51.356;9.530;2023-05-31T03:53:05;9.63;;;5.80;;
3819;SDS011;1925;51.356;9.530;2023-05-31T03:55:31;11.13;;;6.27;;
3819;SDS011;1925;51.356;9.530;2023-05-31T03:57:58;8.00;;;5.77;;
3819;SDS011;1925;51.356;9.530;2023-05-31T04:00:24;6.07;;;5.47;;
3819;SDS011;1925;51.356;9.530;2023-05-31T04:02:50;8.13;;;5.80;;
3819;SDS011;1925;51.356;9.530;2023-05-31T04:05:16;9.57;;;5.80;;
3819;SDS011;1925;51.356;9.530;2023-05-31T04:07:42;8.50;;;6.10;;
3819;SDS011;1925;51.356;9.530;2023-05-31T04:10:09;8.43;;;6.10;;
3819;SDS011;1925;51.356;9.530;2023-05-31T04:12:35;9.07;;;6.27;;
3819;SDS011;1925;51.356;9.530;2023-05-31T04:15:01;10.07;;;5.73;;
3819;SDS011;1925;51.356;9.530;2023-05-31T04:17:27;13.20;;;6.03;;
3819;SDS011;1925;51.356;9.530;2023-05-31T04:19:54;8.97;;;5.53;;
3819;SDS011;1925;51.356;9.530;2023-05-31T04:22:20;7.82;;;5.45;;
3819;SDS011;1925;51.356;9.530;2023-05-31T04:24:47;10.65;;;6.10;;
3819;SDS011;1925;51.356;9.530;2023-05-31T04:27:13;7.87;;;5.47;;
3819;SDS011;1925;51.356;9.530;2023-05-31T04:29:43;6.53;;;5.82;;
3819;SDS011;1925;51.356;9.530;2023-05-31T04:32:10;11.60;;;6.05;;
3819;SDS011;1925;51.356;9.530;2023-05-31T04:34:39;6.82;;;5.47;;
3819;SDS011;1925;51.356;9.530;2023-05-31T04:37:05;10.55;;;5.60;;
3819;SDS011;1925;51.356;9.530;2023-05-31T04:39:32;9.10;;;5.60;;
3819;SDS011;1925;51.356;9.530;2023-05-31T04:41:58;13.30;;;6.17;;
3819;SDS011;1925;51.356;9.530;2023-05-31T04:44:27;11.10;;;6.23;;
3819;SDS011;1925;51.356;9.530;2023-05-31T04:46:53;9.30;;;6.33;;
3819;SDS011;1925;51.356;9.530;2023-05-31T04:49:19;10.20;;;6.03;;
3819;SDS011;1925;51.356;9.530;2023-05-31T04:51:45;9.50;;;6.60;;
3819;SDS011;1925;51.356;9.530;2023-05-31T04:54:11;13.43;;;7.22;;
3819;SDS011;1925;51.356;9.530;2023-05-31T04:56:37;14.03;;;6.40;;
3819;SDS011;1925;51.356;9.530;2023-05-31T04:59:03;7.07;;;5.93;;
3819;SDS011;1925;51.356;9.530;2023-05-31T05:01:30;7.47;;;6.10;;
3819;SDS011;1925;51.356;9.530;2023-05-31T05:03:56;11.20;;;6.17;;
3819;SDS011;1925;51.356;9.530;2023-05-31T05:06:22;9.40;;;6.20;;
3819;SDS011;1925;51.356;9.530;2023-05-31T05:08:49;7.60;;;6.13;;
3819;SDS011;1925;51.356;9.530;2023-05-31T05:11:15;16.93;;;6.83;;
3819;SDS011;1925;51.356;9.530;2023-05-31T05:13:42;14.23;;;6.73;;
3819;SDS011;1925;51.356;9.530;2023-05-31T05:16:08;7.50;;;6.10;;
3819;SDS011;1925;51.356;9.530;2023-05-31T05:18:35;7.50;;;5.90;;
3819;SDS011;1925;51.356;9.530;2023-05-31T05:21:01;11.00;;;5.87;;
3819;SDS011;1925;51.356;9.530;2023-05-31T05:23:28;10.03;;;7.10;;
3819;SDS011;1925;51.356;9.530;2023-05-31T05:25:54;8.30;;;5.33;;
3819;SDS011;1925;51.356;9.530;2023-05-31T05:28:20;9.23;;;5.50;;
3819;SDS011;1925;51.356;9.530;2023-05-31T05:30:47;8.00;;;5.63;;
3819;SDS011;1925;51.356;9.530;2023-05-31T05:33:13;10.70;;;6.90;;
3819;SDS011;1925;51.356;9.530;2023-05-31T05:35:39;11.67;;;5.70;;
3819;SDS011;1925;51.356;9.530;2023-05-31T05:38:05;8.53;;;5.70;;
3819;SDS011;1925;51.356;9.530;2023-05-31T05:40:31;9.70;;;5.20;;
3819;SDS011;1925;51.356;9.530;2023-05-31T05:42:57;11.30;;;6.40;;
3819;SDS011;1925;51.356;9.530;2023-05-31T05:45:23;7.47;;;4.70;;
3819;SDS011;1925;51.356;9.530;2023-05-31T05:47:49;6.30;;;5.27;;
3819;SDS011;1925;51.356;9.530;2023-05-31T05:50:15;10.63;;;5.60;;
3819;SDS011;1925;51.356;9.530;2023-05-31T05:52:41;7.00;;;5.30;;
3819;SDS011;1925;51.356;9.530;2023-05-31T05:55:07;6.93;;;4.33;;
3819;SDS011;1925;51.356;9.530;2023-05-31T05:57:33;7.40;;;6.47;;
3819;SDS011;1925;51.356;9.530;2023-05-31T05:59:59;7.63;;;5.50;;
3819;SDS011;1925;51.356;9.530;2023-05-31T06:02:25;8.27;;;5.10;;
3819;SDS011;1925;51.356;9.530;2023-05-31T06:04:51;5.93;;;4.33;;
3819;SDS011;1925;51.356;9.530;2023-05-31T06:07:17;11.87;;;5.20;;
3819;SDS011;1925;51.356;9.530;2023-05-31T06:09:44;8.53;;;4.60;;
3819;SDS011;1925;51.356;9.530;2023-05-31T06:12:11;8.13;;;4.70;;
3819;SDS011;1925;51.356;9.530;2023-05-31T06:14:37;12.73;;;4.70;;
3819;SDS011;1925;51.356;9.530;2023-05-31T06:17:03;8.13;;;3.93;;
3819;SDS011;1925;51.356;9.530;2023-05-31T06:19:29;6.13;;;4.20;;
3819;SDS011;1925;51.356;9.530;2023-05-31T06:21:55;6.43;;;3.90;;
3819;SDS011;1925;51.356;9.530;2023-05-31T06:24:22;7.43;;;4.30;;
3819;SDS011;1925;51.356;9.530;2023-05-31T06:26:48;6.63;;;3.80;;
3819;SDS011;1925;51.356;9.530;2023-05-31T06:29:14;7.20;;;4.30;;
3819;SDS011;1925;51.356;9.530;2023-05-31T06:31:40;5.67;;;3.70;;
3819;SDS011;1925;51.356;9.530;2023-05-31T06:34:07;8.07;;;5.10;;
3819;SDS011;1925;51.356;9.530;2023-05-31T06:36:34;5.67;;;4.17;;
3819;SDS011;1925;51.356;9.530;2023-05-31T06:39:00;8.13;;;3.80;;
3819;SDS011;1925;51.356;9.530;2023-05-31T06:41:26;5.50;;;4.30;;
3819;SDS011;1925;51.356;9.530;2023-05-31T06:43:54;9.27;;;3.80;;
3819;SDS011;1925;51.356;9.530;2023-05-31T06:46:20;8.43;;;4.60;;
3819;SDS011;1925;51.356;9.530;2023-05-31T06:48:46;6.37;;;4.20;;
3819;SDS011;1925;51.356;9.530;2023-05-31T06:51:12;6.13;;;3.53;;
3819;SDS011;1925;51.356;9.530;2023-05-31T06:53:38;9.63;;;3.83;;
3819;SDS011;1925;51.356;9.530;2023-05-31T06:56:03;5.30;;;3.27;;
3819;SDS011;1925;51.356;9.530;2023-05-31T06:58:31;9.53;;;4.60;;
3819;SDS011;1925;51.356;9.530;2023-05-31T07:00:57;5.37;;;3.27;;
3819;SDS011;1925;51.356;9.530;2023-05-31T07:03:23;11.53;;;3.70;;
3819;SDS011;1925;51.356;9.530;2023-05-31T07:05:49;4.07;;;3.50;;
3819;SDS011;1925;51.356;9.530;2023-05-31T07:08:15;6.73;;;3.30;;
3819;SDS011;1925;51.356;9.530;2023-05-31T07:10:41;7.93;;;4.20;;
3819;SDS011;1925;51.356;9.530;2023-05-31T07:13:07;6.43;;;3.20;;
3819;SDS011;1925;51.356;9.530;2023-05-31T07:15:33;4.90;;;3.80;;
3819;SDS011;1925;51.356;9.530;2023-05-31T07:17:59;7.47;;;3.90;;
3819;SDS011;1925;51.356;9.530;2023-05-31T07:20:25;5.90;;;3.33;;
3819;SDS011;1925;51.356;9.530;2023-05-31T07:22:51;7.43;;;3.37;;
3819;SDS011;1925;51.356;9.530;2023-05-31T07:25:17;8.70;;;3.77;;
3819;SDS011;1925;51.356;9.530;2023-05-31T07:27:43;4.70;;;3.13;;
3819;SDS011;1925;51.356;9.530;2023-05-31T07:30:09;5.27;;;3.00;;
3819;SDS011;1925;51.356;9.530;2023-05-31T07:32:35;6.90;;;3.50;;
3819;SDS011;1925;51.356;9.530;2023-05-31T07:35:02;5.20;;;3.67;;
3819;SDS011;1925;51.356;9.530;2023-05-31T07:37:28;5.73;;;3.57;;
3819;SDS011;1925;51.356;9.530;2023-05-31T07:39:53;3.87;;;2.50;;
3819;SDS011;1925;51.356;9.530;2023-05-31T07:42:19;11.70;;;3.90;;
3819;SDS011;1925;51.356;9.530;2023-05-31T07:44:45;6.70;;;2.83;;
3819;SDS011;1925;51.356;9.530;2023-05-31T07:47:14;4.50;;;2.67;;
3819;SDS011;1925;51.356;9.530;2023-05-31T07:49:40;4.97;;;3.10;;
3819;SDS011;1925;51.356;9.530;2023-05-31T07:52:06;4.30;;;3.07;;
3819;SDS011;1925;51.356;9.530;2023-05-31T07:54:32;6.87;;;3.67;;
3819;SDS011;1925;51.356;9.530;2023-05-31T07:56:58;3.77;;;3.10;;
3819;SDS011;1925;51.356;9.530;2023-05-31T07:59:24;5.90;;;2.93;;
3819;SDS011;1925;51.356;9.530;2023-05-31T08:01:50;12.70;;;3.90;;
3819;SDS011;1925;51.356;9.530;2023-05-31T08:04:16;10.83;;;3.50;;
3819;SDS011;1925;51.356;9.530;2023-05-31T08:06:42;5.13;;;3.17;;
3819;SDS011;1925;51.356;9.530;2023-05-31T08:09:08;7.00;;;3.30;;
3819;SDS011;1925;51.356;9.530;2023-05-31T08:11:34;9.13;;;3.83;;
3819;SDS011;1925;51.356;9.530;2023-05-31T08:14:01;5.93;;;2.97;;
3819;SDS011;1925;51.356;9.530;2023-05-31T08:16:28;4.63;;;3.17;;
3819;SDS011;1925;51.356;9.530;2023-05-31T08:18:54;8.90;;;3.13;;
3819;SDS011;1925;51.356;9.530;2023-05-31T08:21:20;5.40;;;3.00;;
3819;SDS011;1925;51.356;9.530;2023-05-31T08:23:46;4.47;;;2.60;;
3819;SDS011;1925;51.356;9.530;2023-05-31T08:26:12;4.50;;;2.47;;
3819;SDS011;1925;51.356;9.530;2023-05-31T08:28:38;3.27;;;1.70;;
3819;SDS011;1925;51.356;9.530;2023-05-31T08:31:04;8.60;;;1.90;;
3819;SDS011;1925;51.356;9.530;2023-05-31T08:33:30;2.40;;;2.20;;
3819;SDS011;1925;51.356;9.530;2023-05-31T08:35:56;5.63;;;2.73;;
3819;SDS011;1925;51.356;9.530;2023-05-31T08:38:29;3.57;;;2.53;;
3819;SDS011;1925;51.356;9.530;2023-05-31T08:40:57;3.10;;;2.50;;
3819;SDS011;1925;51.356;9.530;2023-05-31T08:43:23;4.27;;;1.80;;
3819;SDS011;1925;51.356;9.530;2023-05-31T08:45:51;6.87;;;1.87;;
3819;SDS011;1925;51.356;9.530;2023-05-31T08:48:18;3.60;;;2.17;;
3819;SDS011;1925;51.356;9.530;2023-05-31T08:50:47;2.23;;;1.70;;
3819;SDS011;1925;51.356;9.530;2023-05-31T08:53:13;4.17;;;1.80;;
3819;SDS011;1925;51.356;9.530;2023-05-31T08:55:43;2.97;;;1.63;;
3819;SDS011;1925;51.356;9.530;2023-05-31T08:58:11;4.30;;;2.10;;
3819;SDS011;1925;51.356;9.530;2023-05-31T09:00:37;4.50;;;2.43;;
3819;SDS011;1925;51.356;9.530;2023-05-31T09:03:05;6.10;;;2.40;;
3819;SDS011;1925;51.356;9.530;2023-05-31T09:05:31;5.57;;;2.00;;
3819;SDS011;1925;51.356;9.530;2023-05-31T09:07:58;4.70;;;2.50;;
3819;SDS011;1925;51.356;9.530;2023-05-31T09:10:24;3.30;;;2.00;;
3819;SDS011;1925;51.356;9.530;2023-05-31T09:12:50;2.93;;;2.03;;
3819;SDS011;1925;51.356;9.530;2023-05-31T09:15:16;4.40;;;2.23;;
3819;SDS011;1925;51.356;9.530;2023-05-31T09:17:43;5.43;;;2.83;;
3819;SDS011;1925;51.356;9.530;2023-05-31T09:20:09;4.50;;;2.30;;
3819;SDS011;1925;51.356;9.530;2023-05-31T09:22:35;4.43;;;2.43;;
3819;SDS011;1925;51.356;9.530;2023-05-31T09:25:01;4.80;;;2.07;;
3819;SDS011;1925;51.356;9.530;2023-05-31T09:27:33;4.20;;;1.80;;
3819;SDS011;1925;51.356;9.530;2023-05-31T09:30:03;6.03;;;2.80;;
3819;SDS011;1925;51.356;9.530;2023-05-31T09:32:30;3.23;;;2.20;;
3819;SDS011;1925;51.356;9.530;2023-05-31T09:35:08;3.93;;;2.37;;
3819;SDS011;1925;51.356;9.530;2023-05-31T09:37:46;3.53;;;2.03;;
3819;SDS011;1925;51.356;9.530;2023-05-31T09:40:22;4.90;;;2.23;;
3819;SDS011;1925;51.356;9.530;2023-05-31T09:42:50;4.80;;;2.00;;
3819;SDS011;1925;51.356;9.530;2023-05-31T09:45:16;5.27;;;1.93;;
3819;SDS011;1925;51.356;9.530;2023-05-31T09:47:42;3.73;;;2.07;;
3819;SDS011;1925;51.356;9.530;2023-05-31T09:50:09;2.83;;;1.70;;
3819;SDS011;1925;51.356;9.530;2023-05-31T09:52:35;6.93;;;2.23;;
3819;SDS011;1925;51.356;9.530;2023-05-31T09:55:06;4.30;;;1.90;;
3819;SDS011;1925;51.356;9.530;2023-05-31T09:57:33;4.20;;;2.10;;
3819;SDS011;1925;51.356;9.530;2023-05-31T10:00:05;3.30;;;2.10;;
3819;SDS011;1925;51.356;9.530;2023-05-31T10:02:39;11.50;;;2.33;;
3819;SDS011;1925;51.356;9.530;2023-05-31T10:05:09;2.63;;;1.60;;
3819;SDS011;1925;51.356;9.530;2023-05-31T10:07:36;4.40;;;2.00;;
3819;SDS011;1925;51.356;9.530;2023-05-31T10:10:03;3.40;;;2.53;;
3819;SDS011;1925;51.356;9.530;2023-05-31T10:12:29;3.00;;;1.97;;
3819;SDS011;1925;51.356;9.530;2023-05-31T10:14:58;3.03;;;1.87;;
3819;SDS011;1925;51.356;9.530;2023-05-31T10:17:26;2.20;;;1.57;;
3819;SDS011;1925;51.356;9.530;2023-05-31T10:19:56;4.80;;;2.27;;
3819;SDS011;1925;51.356;9.530;2023-05-31T10:22:26;3.30;;;1.80;;
3819;SDS011;1925;51.356;9.530;2023-05-31T10:25:00;7.17;;;2.03;;
3819;SDS011;1925;51.356;9.530;2023-05-31T10:27:28;3.27;;;2.20;;
3819;SDS011;1925;51.356;9.530;2023-05-31T10:29:56;4.17;;;1.83;;
3819;SDS011;1925;51.356;9.530;2023-05-31T10:32:29;2.37;;;1.63;;
3819;SDS011;1925;51.356;9.530;2023-05-31T10:34:58;2.10;;;1.53;;
3819;SDS011;1925;51.356;9.530;2023-05-31T10:37:24;3.90;;;1.80;;
3819;SDS011;1925;51.356;9.530;2023-05-31T10:39:56;2.90;;;1.60;;
3819;SDS011;1925;51.356;9.530;2023-05-31T10:42:28;7.27;;;1.90;;
3819;SDS011;1925;51.356;9.530;2023-05-31T10:45:01;5.03;;;2.13;;
3819;SDS011;1925;51.356;9.530;2023-05-31T10:47:34;3.17;;;1.83;;
3819;SDS011;1925;51.356;9.530;2023-05-31T10:50:01;8.13;;;2.50;;
3819;SDS011;1925;51.356;9.530;2023-05-31T10:52:29;10.40;;;3.00;;
3819;SDS011;1925;51.356;9.530;2023-05-31T10:55:17;2.90;;;1.60;;
3819;SDS011;1925;51.356;9.530;2023-05-31T10:57:43;12.27;;;2.33;;
3819;SDS011;1925;51.356;9.530;2023-05-31T11:00:10;4.80;;;2.10;;
3819;SDS011;1925;51.356;9.530;2023-05-31T11:02:40;3.33;;;1.67;;
3819;SDS011;1925;51.356;9.530;2023-05-31T11:05:17;1.63;;;1.40;;
3819;SDS011;1925;51.356;9.530;2023-05-31T11:07:46;4.23;;;1.60;;
3819;SDS011;1925;51.356;9.530;2023-05-31T11:10:23;3.40;;;1.63;;
3819;SDS011;1925;51.356;9.530;2023-05-31T11:12:51;3.83;;;1.93;;
3819;SDS011;1925;51.356;9.530;2023-05-31T11:15:19;3.67;;;1.43;;
3819;SDS011;1925;51.356;9.530;2023-05-31T11:17:52;4.80;;;1.83;;
3819;SDS011;1925;51.356;9.530;2023-05-31T11:20:21;4.67;;;1.93;;
3819;SDS011;1925;51.356;9.530;2023-05-31T11:22:48;2.97;;;1.90;;
3819;SDS011;1925;51.356;9.530;2023-05-31T11:25:33;5.83;;;2.00;;
3819;SDS011;1925;51.356;9.530;2023-05-31T11:28:06;2.30;;;1.57;;
3819;SDS011;1925;51.356;9.530;2023-05-31T11:30:35;5.23;;;2.03;;
3819;SDS011;1925;51.356;9.530;2023-05-31T11:33:01;2.83;;;2.43;;
3819;SDS011;1925;51.356;9.530;2023-05-31T11:35:31;4.40;;;1.70;;
3819;SDS011;1925;51.356;9.530;2023-05-31T11:38:01;1.90;;;1.50;;
3819;SDS011;1925;51.356;9.530;2023-05-31T11:40:27;3.50;;;2.00;;
3819;SDS011;1925;51.356;9.530;2023-05-31T11:42:55;1.77;;;1.63;;
3819;SDS011;1925;51.356;9.530;2023-05-31T11:45:28;3.77;;;1.60;;
3819;SDS011;1925;51.356;9.530;2023-05-31T11:47:59;4.20;;;1.47;;
3819;SDS011;1925;51.356;9.530;2023-05-31T11:50:29;2.60;;;1.60;;
3819;SDS011;1925;51.356;9.530;2023-05-31T11:52:56;5.40;;;2.20;;
3819;SDS011;1925;51.356;9.530;2023-05-31T11:55:29;2.93;;;2.17;;
3819;SDS011;1925;51.356;9.530;2023-05-31T11:57:57;3.57;;;1.43;;
3819;SDS011;1925;51.356;9.530;2023-05-31T12:00:24;4.33;;;1.80;;
3819;SDS011;1925;51.356;9.530;2023-05-31T12:02:54;4.37;;;1.70;;
3819;SDS011;1925;51.356;9.530;2023-05-31T12:05:23;1.70;;;1.43;;
3819;SDS011;1925;51.356;9.530;2023-05-31T12:07:53;4.27;;;2.40;;
3819;SDS011;1925;51.356;9.530;2023-05-31T12:10:19;2.73;;;1.67;;
3819;SDS011;1925;51.356;9.530;2023-05-31T12:12:46;3.87;;;2.20;;
3819;SDS011;1925;51.356;9.530;2023-05-31T12:15:12;3.43;;;2.13;;
3819;SDS011;1925;51.356;9.530;2023-05-31T12:17:40;5.43;;;3.30;;
3819;SDS011;1925;51.356;9.530;2023-05-31T12:20:06;5.43;;;2.27;;
3819;SDS011;1925;51.356;9.530;2023-05-31T12:22:33;4.50;;;1.90;;
3819;SDS011;1925;51.356;9.530;2023-05-31T12:24:59;4.30;;;2.03;;
3819;SDS011;1925;51.356;9.530;2023-05-31T12:27:26;4.57;;;2.40;;
3819;SDS011;1925;51.356;9.530;2023-05-31T12:29:56;4.77;;;2.10;;
3819;SDS011;1925;51.356;9.530;2023-05-31T12:32:22;2.70;;;2.00;;
3819;SDS011;1925;51.356;9.530;2023-05-31T12:34:53;2.90;;;1.83;;
3819;SDS011;1925;51.356;9.530;2023-05-31T12:37:28;2.97;;;2.33;;
3819;SDS011;1925;51.356;9.530;2023-05-31T12:42:34;4.60;;;2.50;;
3819;SDS011;1925;51.356;9.530;2023-05-31T12:45:06;7.63;;;2.37;;
3819;SDS011;1925;51.356;9.530;2023-05-31T12:47:33;4.00;;;2.27;;
3819;SDS011;1925;51.356;9.530;2023-05-31T12:50:00;2.93;;;2.17;;
3819;SDS011;1925;51.356;9.530;2023-05-31T12:52:26;3.50;;;1.60;;
3819;SDS011;1925;51.356;9.530;2023-05-31T12:54:52;3.37;;;2.07;;
3819;SDS011;1925;51.356;9.530;2023-05-31T12:57:18;4.10;;;1.97;;
3819;SDS011;1925;51.356;9.530;2023-05-31T12:59:44;2.67;;;1.87;;
3819;SDS011;1925;51.356;9.530;2023-05-31T13:02:10;4.10;;;2.00;;
3819;SDS011;1925;51.356;9.530;2023-05-31T13:04:36;4.10;;;2.30;;
3819;SDS011;1925;51.356;9.530;2023-05-31T13:07:02;3.97;;;2.20;;
3819;SDS011;1925;51.356;9.530;2023-05-31T13:09:28;3.77;;;2.07;;
3819;SDS011;1925;51.356;9.530;2023-05-31T13:11:54;5.73;;;1.60;;
3819;SDS011;1925;51.356;9.530;2023-05-31T13:14:20;7.17;;;2.33;;
3819;SDS011;1925;51.356;9.530;2023-05-31T13:16:47;4.40;;;2.20;;
3819;SDS011;1925;51.356;9.530;2023-05-31T13:19:13;4.77;;;2.03;;
3819;SDS011;1925;51.356;9.530;2023-05-31T13:21:39;6.83;;;2.20;;
3819;SDS011;1925;51.356;9.530;2023-05-31T13:24:06;8.63;;;3.07;;
3819;SDS011;1925;51.356;9.530;2023-05-31T13:26:32;8.90;;;2.40;;
3819;SDS011;1925;51.356;9.530;2023-05-31T13:28:59;5.63;;;1.90;;
3819;SDS011;1925;51.356;9.530;2023-05-31T13:31:26;5.27;;;2.43;;
3819;SDS011;1925;51.356;9.530;2023-05-31T13:33:52;7.83;;;2.80;;
3819;SDS011;1925;51.356;9.530;2023-05-31T13:36:18;2.30;;;2.00;;
3819;SDS011;1925;51.356;9.530;2023-05-31T13:38:45;2.50;;;1.77;;
3819;SDS011;1925;51.356;9.530;2023-05-31T13:41:11;5.07;;;2.77;;
3819;SDS011;1925;51.356;9.530;2023-05-31T13:43:37;5.20;;;2.20;;
3819;SDS011;1925;51.356;9.530;2023-05-31T13:46:03;4.47;;;2.50;;
3819;SDS011;1925;51.356;9.530;2023-05-31T13:48:30;4.33;;;2.10;;
3819;SDS011;1925;51.356;9.530;2023-05-31T13:50:57;1.90;;;1.77;;
3819;SDS011;1925;51.356;9.530;2023-05-31T13:53:23;3.87;;;2.40;;
3819;SDS011;1925;51.356;9.530;2023-05-31T13:55:49;4.00;;;2.93;;
3819;SDS011;1925;51.356;9.530;2023-05-31T13:58:15;5.60;;;2.40;;
3819;SDS011;1925;51.356;9.530;2023-05-31T14:00:41;3.87;;;2.60;;
3819;SDS011;1925;51.356;9.530;2023-05-31T14:03:07;2.90;;;2.23;;
3819;SDS011;1925;51.356;9.530;2023-05-31T14:05:33;8.57;;;2.10;;
3819;SDS011;1925;51.356;9.530;2023-05-31T14:08:00;3.87;;;2.10;;
3819;SDS011;1925;51.356;9.530;2023-05-31T14:10:26;6.30;;;2.07;;
3819;SDS011;1925;51.356;9.530;2023-05-31T14:12:52;5.90;;;2.13;;
3819;SDS011;1925;51.356;9.530;2023-05-31T14:15:18;6.30;;;2.30;;
3819;SDS011;1925;51.356;9.530;2023-05-31T14:17:44;3.43;;;2.07;;
3819;SDS011;1925;51.356;9.530;2023-05-31T14:20:10;3.50;;;2.30;;
3819;SDS011;1925;51.356;9.530;2023-05-31T14:22:36;7.40;;;2.27;;
3819;SDS011;1925;51.356;9.530;2023-05-31T14:25:03;2.83;;;2.20;;
3819;SDS011;1925;51.356;9.530;2023-05-31T14:27:29;3.57;;;2.00;;
3819;SDS011;1925;51.356;9.530;2023-05-31T14:29:55;2.60;;;1.90;;
3819;SDS011;1925;51.356;9.530;2023-05-31T14:32:21;5.60;;;2.47;;
3819;SDS011;1925;51.356;9.530;2023-05-31T14:34:47;2.63;;;1.80;;
3819;SDS011;1925;51.356;9.530;2023-05-31T14:37:13;2.90;;;2.10;;
3819;SDS011;1925;51.356;9.530;2023-05-31T14:39:40;7.17;;;2.30;;
3819;SDS011;1925;51.356;9.530;2023-05-31T14:42:06;4.87;;;2.33;;
3819;SDS011;1925;51.356;9.530;2023-05-31T14:44:32;7.93;;;2.20;;
3819;SDS011;1925;51.356;9.530;2023-05-31T14:47:00;2.77;;;1.67;;
3819;SDS011;1925;51.356;9.530;2023-05-31T14:49:26;4.97;;;1.90;;
3819;SDS011;1925;51.356;9.530;2023-05-31T14:51:52;2.87;;;2.67;;
3819;SDS011;1925;51.356;9.530;2023-05-31T14:54:18;6.73;;;2.20;;
3819;SDS011;1925;51.356;9.530;2023-05-31T14:56:45;5.00;;;2.40;;
3819;SDS011;1925;51.356;9.530;2023-05-31T14:59:11;4.37;;;2.03;;
3819;SDS011;1925;51.356;9.530;2023-05-31T15:01:38;3.13;;;2.30;;
3819;SDS011;1925;51.356;9.530;2023-05-31T15:04:08;4.37;;;2.27;;
3819;SDS011;1925;51.356;9.530;2023-05-31T15:06:34;5.00;;;2.57;;
3819;SDS011;1925;51.356;9.530;2023-05-31T15:09:01;4.17;;;2.10;;
3819;SDS011;1925;51.356;9.530;2023-05-31T15:11:27;5.40;;;1.70;;
3819;SDS011;1925;51.356;9.530;2023-05-31T15:13:53;4.47;;;1.63;;
3819;SDS011;1925;51.356;9.530;2023-05-31T15:16:20;4.40;;;2.23;;
3819;SDS011;1925;51.356;9.530;2023-05-31T15:18:46;2.87;;;2.17;;
3819;SDS011;1925;51.356;9.530;2023-05-31T15:21:12;10.77;;;3.03;;
3819;SDS011;1925;51.356;9.530;2023-05-31T15:23:38;2.57;;;1.87;;